sensor_id;sensor_type;location;lat;lon;timestamp;P1;durP1;ratioP1;P2;durP2;ratioP2
59239;SDS011;45010;53.640;10.578;2023-05-18T00:00:58;1.42;;;0.68;;
59239;SDS011;45010;53.640;10.578;2023-05-18T00:03:59;1.55;;;0.38;;
59239;SDS011;45010;53.640;10.578;2023-05-18T00:07:01;1.33;;;0.40;;
59239;SDS011;45010;53.640;10.578;2023-05-18T00:10:03;1.42;;;0.50;;
59239;SDS011;45010;53.640;10.578;2023-05-18T00:13:03;1.60;;;0.50;;
59239;SDS011;45010;53.640;10.578;2023-05-18T00:16:04;2.00;;;0.68;;
59239;SDS011;45010;53.640;10.578;2023-05-18T00:19:04;1.80;;;0.55;;
59239;SDS011;45010;53.640;10.578;2023-05-18T00:22:05;1.52;;;0.70;;
59239;SDS011;45010;53.640;10.578;2023-05-18T00:25:06;0.77;;;0.60;;
59239;SDS011;45010;53.640;10.578;2023-05-18T00:28:07;1.55;;;0.50;;
59239;SDS011;45010;53.640;10.578;2023-05-18T00:31:08;1.25;;;0.90;;
59239;SDS011;45010;53.640;10.578;2023-05-18T00:34:08;0.70;;;0.40;;
59239;SDS011;45010;53.640;10.578;2023-05-18T00:37:09;2.05;;;0.52;;
59239;SDS011;45010;53.640;10.578;2023-05-18T00:40:09;1.92;;;0.55;;
59239;SDS011;45010;53.640;10.578;2023-05-18T00:43:10;1.10;;;0.50;;
59239;SDS011;45010;53.640;10.578;2023-05-18T00:46:10;2.88;;;0.70;;
59239;SDS011;45010;53.640;10.578;2023-05-18T00:49:11;1.42;;;0.50;;
59239;SDS011;45010;53.640;10.578;2023-05-18T00:52:11;1.08;;;0.50;;
59239;SDS011;45010;53.640;10.578;2023-05-18T00:55:12;0.50;;;0.40;;
59239;SDS011;45010;53.640;10.578;2023-05-18T00:58:13;0.82;;;0.50;;
59239;SDS011;45010;53.640;10.578;2023-05-18T01:01:13;1.73;;;0.40;;
59239;SDS011;45010;53.640;10.578;2023-05-18T01:04:16;1.58;;;0.50;;
59239;SDS011;45010;53.640;10.578;2023-05-18T01:07:17;1.00;;;0.50;;
59239;SDS011;45010;53.640;10.578;2023-05-18T01:10:17;3.58;;;0.70;;
59239;SDS011;45010;53.640;10.578;2023-05-18T01:13:22;1.83;;;0.50;;
59239;SDS011;45010;53.640;10.578;2023-05-18T01:16:30;1.02;;;0.60;;
59239;SDS011;45010;53.640;10.578;2023-05-18T01:19:50;1.27;;;0.60;;
59239;SDS011;45010;53.640;10.578;2023-05-18T01:26:34;1.00;;;0.60;;
59239;SDS011;45010;53.640;10.578;2023-05-18T01:29:39;0.60;;;0.30;;
59239;SDS011;45010;53.640;10.578;2023-05-18T01:32:41;1.00;;;0.40;;
59239;SDS011;45010;53.640;10.578;2023-05-18T01:35:42;0.90;;;0.50;;
59239;SDS011;45010;53.640;10.578;2023-05-18T01:38:47;2.58;;;0.57;;
59239;SDS011;45010;53.640;10.578;2023-05-18T01:41:51;0.82;;;0.50;;
59239;SDS011;45010;53.640;10.578;2023-05-18T01:45:00;0.82;;;0.60;;
59239;SDS011;45010;53.640;10.578;2023-05-18T01:48:06;1.13;;;0.50;;
59239;SDS011;45010;53.640;10.578;2023-05-18T01:51:09;1.17;;;0.40;;
59239;SDS011;45010;53.640;10.578;2023-05-18T01:54:15;0.90;;;0.50;;
59239;SDS011;45010;53.640;10.578;2023-05-18T01:57:17;2.50;;;0.60;;
59239;SDS011;45010;53.640;10.578;2023-05-18T02:00:22;0.77;;;0.45;;
59239;SDS011;45010;53.640;10.578;2023-05-18T02:03:23;2.35;;;0.50;;
59239;SDS011;45010;53.640;10.578;2023-05-18T02:06:23;1.15;;;0.40;;
59239;SDS011;45010;53.640;10.578;2023-05-18T02:09:23;1.50;;;0.70;;
59239;SDS011;45010;53.640;10.578;2023-05-18T02:12:24;1.75;;;0.52;;
59239;SDS011;45010;53.640;10.578;2023-05-18T02:15:24;1.10;;;0.55;;
59239;SDS011;45010;53.640;10.578;2023-05-18T02:18:25;0.82;;;0.47;;
59239;SDS011;45010;53.640;10.578;2023-05-18T02:21:25;1.42;;;0.50;;
59239;SDS011;45010;53.640;10.578;2023-05-18T02:24:26;1.75;;;0.60;;
59239;SDS011;45010;53.640;10.578;2023-05-18T02:27:26;1.05;;;0.40;;
59239;SDS011;45010;53.640;10.578;2023-05-18T02:30:27;0.80;;;0.40;;
59239;SDS011;45010;53.640;10.578;2023-05-18T02:33:30;1.63;;;0.60;;
59239;SDS011;45010;53.640;10.578;2023-05-18T02:36:36;1.73;;;0.60;;
59239;SDS011;45010;53.640;10.578;2023-05-18T02:39:38;1.25;;;0.47;;
59239;SDS011;45010;53.640;10.578;2023-05-18T02:42:39;0.85;;;0.43;;
59239;SDS011;45010;53.640;10.578;2023-05-18T02:45:39;1.35;;;0.60;;
59239;SDS011;45010;53.640;10.578;2023-05-18T02:48:40;1.40;;;0.70;;
59239;SDS011;45010;53.640;10.578;2023-05-18T02:51:44;1.98;;;0.45;;
59239;SDS011;45010;53.640;10.578;2023-05-18T02:54:44;0.60;;;0.45;;
59239;SDS011;45010;53.640;10.578;2023-05-18T02:57:45;0.57;;;0.43;;
59239;SDS011;45010;53.640;10.578;2023-05-18T03:00:47;1.75;;;0.38;;
59239;SDS011;45010;53.640;10.578;2023-05-18T03:03:47;1.58;;;0.50;;
59239;SDS011;45010;53.640;10.578;2023-05-18T03:06:48;2.13;;;0.60;;
59239;SDS011;45010;53.640;10.578;2023-05-18T03:09:51;1.08;;;0.50;;
59239;SDS011;45010;53.640;10.578;2023-05-18T03:12:52;0.70;;;0.40;;
59239;SDS011;45010;53.640;10.578;2023-05-18T03:15:52;1.83;;;0.47;;
59239;SDS011;45010;53.640;10.578;2023-05-18T03:18:55;0.82;;;0.40;;
59239;SDS011;45010;53.640;10.578;2023-05-18T03:22:01;1.70;;;0.60;;
59239;SDS011;45010;53.640;10.578;2023-05-18T03:25:05;1.23;;;0.60;;
59239;SDS011;45010;53.640;10.578;2023-05-18T03:28:06;1.73;;;0.70;;
59239;SDS011;45010;53.640;10.578;2023-05-18T03:31:06;0.88;;;0.50;;
59239;SDS011;45010;53.640;10.578;2023-05-18T03:34:07;1.42;;;0.52;;
59239;SDS011;45010;53.640;10.578;2023-05-18T03:37:07;1.75;;;0.60;;
59239;SDS011;45010;53.640;10.578;2023-05-18T03:40:08;5.50;;;0.88;;
59239;SDS011;45010;53.640;10.578;2023-05-18T03:43:12;1.77;;;0.45;;
59239;SDS011;45010;53.640;10.578;2023-05-18T03:46:12;1.33;;;0.63;;
59239;SDS011;45010;53.640;10.578;2023-05-18T03:49:12;0.85;;;0.50;;
59239;SDS011;45010;53.640;10.578;2023-05-18T03:52:13;1.85;;;0.50;;
59239;SDS011;45010;53.640;10.578;2023-05-18T03:55:14;1.20;;;0.50;;
59239;SDS011;45010;53.640;10.578;2023-05-18T03:58:16;0.85;;;0.47;;
59239;SDS011;45010;53.640;10.578;2023-05-18T04:01:19;0.98;;;0.73;;
59239;SDS011;45010;53.640;10.578;2023-05-18T04:04:22;0.88;;;0.45;;
59239;SDS011;45010;53.640;10.578;2023-05-18T04:07:26;1.48;;;0.68;;
59239;SDS011;45010;53.640;10.578;2023-05-18T04:10:26;0.70;;;0.50;;
59239;SDS011;45010;53.640;10.578;2023-05-18T04:13:26;0.75;;;0.40;;
59239;SDS011;45010;53.640;10.578;2023-05-18T04:16:27;0.95;;;0.40;;
59239;SDS011;45010;53.640;10.578;2023-05-18T04:19:27;0.85;;;0.50;;
59239;SDS011;45010;53.640;10.578;2023-05-18T04:22:27;0.80;;;0.60;;
59239;SDS011;45010;53.640;10.578;2023-05-18T04:25:30;1.05;;;0.50;;
59239;SDS011;45010;53.640;10.578;2023-05-18T04:28:30;0.82;;;0.40;;
59239;SDS011;45010;53.640;10.578;2023-05-18T04:31:31;1.10;;;0.43;;
59239;SDS011;45010;53.640;10.578;2023-05-18T04:34:32;0.98;;;0.30;;
59239;SDS011;45010;53.640;10.578;2023-05-18T04:37:36;1.23;;;0.55;;
59239;SDS011;45010;53.640;10.578;2023-05-18T04:40:39;1.67;;;0.40;;
59239;SDS011;45010;53.640;10.578;2023-05-18T04:43:41;0.40;;;0.30;;
59239;SDS011;45010;53.640;10.578;2023-05-18T04:46:41;0.90;;;0.43;;
59239;SDS011;45010;53.640;10.578;2023-05-18T04:49:42;1.52;;;0.50;;
59239;SDS011;45010;53.640;10.578;2023-05-18T04:52:43;1.52;;;0.60;;
59239;SDS011;45010;53.640;10.578;2023-05-18T04:55:48;1.88;;;0.60;;
59239;SDS011;45010;53.640;10.578;2023-05-18T04:58:49;1.38;;;0.70;;
59239;SDS011;45010;53.640;10.578;2023-05-18T05:01:49;1.90;;;0.50;;
59239;SDS011;45010;53.640;10.578;2023-05-18T05:04:49;2.25;;;0.75;;
59239;SDS011;45010;53.640;10.578;2023-05-18T05:07:50;1.05;;;0.50;;
59239;SDS011;45010;53.640;10.578;2023-05-18T05:10:51;1.75;;;0.50;;
59239;SDS011;45010;53.640;10.578;2023-05-18T05:13:51;1.40;;;0.73;;
59239;SDS011;45010;53.640;10.578;2023-05-18T05:16:51;1.45;;;0.77;;
59239;SDS011;45010;53.640;10.578;2023-05-18T05:19:51;2.65;;;0.60;;
59239;SDS011;45010;53.640;10.578;2023-05-18T05:22:52;1.20;;;0.70;;
59239;SDS011;45010;53.640;10.578;2023-05-18T05:25:52;1.23;;;0.60;;
59239;SDS011;45010;53.640;10.578;2023-05-18T05:28:52;1.83;;;0.55;;
59239;SDS011;45010;53.640;10.578;2023-05-18T05:31:53;2.53;;;0.60;;
59239;SDS011;45010;53.640;10.578;2023-05-18T05:34:53;1.23;;;0.50;;
59239;SDS011;45010;53.640;10.578;2023-05-18T05:37:53;1.08;;;0.50;;
59239;SDS011;45010;53.640;10.578;2023-05-18T05:40:54;1.15;;;0.60;;
59239;SDS011;45010;53.640;10.578;2023-05-18T05:43:54;0.93;;;0.50;;
59239;SDS011;45010;53.640;10.578;2023-05-18T05:46:55;1.58;;;0.40;;
59239;SDS011;45010;53.640;10.578;2023-05-18T05:49:56;2.10;;;0.60;;
59239;SDS011;45010;53.640;10.578;2023-05-18T05:52:56;1.80;;;0.80;;
59239;SDS011;45010;53.640;10.578;2023-05-18T05:55:56;2.22;;;0.50;;
59239;SDS011;45010;53.640;10.578;2023-05-18T05:58:57;1.70;;;0.88;;
59239;SDS011;45010;53.640;10.578;2023-05-18T06:01:57;1.23;;;0.50;;
59239;SDS011;45010;53.640;10.578;2023-05-18T06:04:57;1.98;;;0.80;;
59239;SDS011;45010;53.640;10.578;2023-05-18T06:07:58;1.80;;;0.60;;
59239;SDS011;45010;53.640;10.578;2023-05-18T06:10:58;2.28;;;0.73;;
59239;SDS011;45010;53.640;10.578;2023-05-18T06:13:59;5.43;;;1.00;;
59239;SDS011;45010;53.640;10.578;2023-05-18T06:16:59;5.95;;;1.25;;
59239;SDS011;45010;53.640;10.578;2023-05-18T06:19:59;5.53;;;1.40;;
59239;SDS011;45010;53.640;10.578;2023-05-18T06:23:00;3.90;;;1.10;;
59239;SDS011;45010;53.640;10.578;2023-05-18T06:26:00;7.38;;;1.10;;
59239;SDS011;45010;53.640;10.578;2023-05-18T06:29:01;5.53;;;1.23;;
59239;SDS011;45010;53.640;10.578;2023-05-18T06:32:01;2.17;;;0.93;;
59239;SDS011;45010;53.640;10.578;2023-05-18T06:35:02;6.43;;;1.00;;
59239;SDS011;45010;53.640;10.578;2023-05-18T06:38:03;6.80;;;1.20;;
59239;SDS011;45010;53.640;10.578;2023-05-18T06:41:03;6.50;;;1.33;;
59239;SDS011;45010;53.640;10.578;2023-05-18T06:44:04;4.50;;;1.35;;
59239;SDS011;45010;53.640;10.578;2023-05-18T06:47:05;4.07;;;1.10;;
59239;SDS011;45010;53.640;10.578;2023-05-18T06:50:05;4.65;;;0.90;;
59239;SDS011;45010;53.640;10.578;2023-05-18T06:53:06;4.70;;;1.17;;
59239;SDS011;45010;53.640;10.578;2023-05-18T06:56:06;2.40;;;0.98;;
59239;SDS011;45010;53.640;10.578;2023-05-18T06:59:07;4.75;;;1.10;;
59239;SDS011;45010;53.640;10.578;2023-05-18T07:02:07;3.28;;;1.05;;
59239;SDS011;45010;53.640;10.578;2023-05-18T07:05:07;5.20;;;1.38;;
59239;SDS011;45010;53.640;10.578;2023-05-18T07:08:08;4.55;;;1.35;;
59239;SDS011;45010;53.640;10.578;2023-05-18T07:11:08;4.30;;;1.30;;
59239;SDS011;45010;53.640;10.578;2023-05-18T07:14:09;5.95;;;1.30;;
59239;SDS011;45010;53.640;10.578;2023-05-18T07:17:09;5.28;;;1.10;;
59239;SDS011;45010;53.640;10.578;2023-05-18T07:20:10;4.32;;;0.93;;
59239;SDS011;45010;53.640;10.578;2023-05-18T07:23:12;2.88;;;0.85;;
59239;SDS011;45010;53.640;10.578;2023-05-18T07:26:12;2.92;;;0.90;;
59239;SDS011;45010;53.640;10.578;2023-05-18T07:29:13;4.50;;;1.17;;
59239;SDS011;45010;53.640;10.578;2023-05-18T07:32:13;3.92;;;1.15;;
59239;SDS011;45010;53.640;10.578;2023-05-18T07:35:13;5.47;;;0.95;;
59239;SDS011;45010;53.640;10.578;2023-05-18T07:38:15;4.00;;;0.85;;
59239;SDS011;45010;53.640;10.578;2023-05-18T07:41:16;2.95;;;0.90;;
59239;SDS011;45010;53.640;10.578;2023-05-18T07:44:16;4.57;;;1.20;;
59239;SDS011;45010;53.640;10.578;2023-05-18T07:47:16;6.32;;;1.75;;
59239;SDS011;45010;53.640;10.578;2023-05-18T07:50:16;6.20;;;1.48;;
59239;SDS011;45010;53.640;10.578;2023-05-18T07:53:17;3.15;;;1.00;;
59239;SDS011;45010;53.640;10.578;2023-05-18T07:56:17;4.03;;;1.38;;
59239;SDS011;45010;53.640;10.578;2023-05-18T07:59:18;3.85;;;1.02;;
59239;SDS011;45010;53.640;10.578;2023-05-18T08:02:19;3.85;;;1.27;;
59239;SDS011;45010;53.640;10.578;2023-05-18T08:05:19;4.82;;;1.00;;
59239;SDS011;45010;53.640;10.578;2023-05-18T08:08:21;4.13;;;1.20;;
59239;SDS011;45010;53.640;10.578;2023-05-18T08:11:21;4.18;;;0.93;;
59239;SDS011;45010;53.640;10.578;2023-05-18T08:14:22;5.65;;;1.10;;
59239;SDS011;45010;53.640;10.578;2023-05-18T08:17:22;5.10;;;1.00;;
59239;SDS011;45010;53.640;10.578;2023-05-18T08:20:23;5.72;;;1.25;;
59239;SDS011;45010;53.640;10.578;2023-05-18T08:23:24;1.90;;;0.93;;
59239;SDS011;45010;53.640;10.578;2023-05-18T08:26:25;3.03;;;1.20;;
59239;SDS011;45010;53.640;10.578;2023-05-18T08:29:25;3.10;;;0.90;;
59239;SDS011;45010;53.640;10.578;2023-05-18T08:32:26;4.20;;;1.08;;
59239;SDS011;45010;53.640;10.578;2023-05-18T08:35:26;3.05;;;0.95;;
59239;SDS011;45010;53.640;10.578;2023-05-18T08:38:27;5.40;;;1.10;;
59239;SDS011;45010;53.640;10.578;2023-05-18T08:41:28;2.17;;;0.88;;
59239;SDS011;45010;53.640;10.578;2023-05-18T08:44:37;4.15;;;1.13;;
59239;SDS011;45010;53.640;10.578;2023-05-18T08:47:39;2.28;;;0.90;;
59239;SDS011;45010;53.640;10.578;2023-05-18T08:50:40;5.22;;;1.10;;
59239;SDS011;45010;53.640;10.578;2023-05-18T08:53:41;2.88;;;1.00;;
59239;SDS011;45010;53.640;10.578;2023-05-18T08:56:43;4.55;;;1.00;;
59239;SDS011;45010;53.640;10.578;2023-05-18T08:59:45;2.90;;;1.25;;
59239;SDS011;45010;53.640;10.578;2023-05-18T09:02:46;3.05;;;0.95;;
59239;SDS011;45010;53.640;10.578;2023-05-18T09:05:47;3.20;;;1.00;;
59239;SDS011;45010;53.640;10.578;2023-05-18T09:08:54;3.28;;;0.90;;
59239;SDS011;45010;53.640;10.578;2023-05-18T09:11:58;3.38;;;1.02;;
59239;SDS011;45010;53.640;10.578;2023-05-18T09:14:58;2.72;;;0.82;;
59239;SDS011;45010;53.640;10.578;2023-05-18T09:17:59;2.38;;;0.90;;
59239;SDS011;45010;53.640;10.578;2023-05-18T09:21:00;3.55;;;0.98;;
59239;SDS011;45010;53.640;10.578;2023-05-18T09:24:00;2.78;;;0.95;;
59239;SDS011;45010;53.640;10.578;2023-05-18T09:27:00;6.03;;;1.50;;
59239;SDS011;45010;53.640;10.578;2023-05-18T09:30:01;4.82;;;1.65;;
59239;SDS011;45010;53.640;10.578;2023-05-18T09:33:03;4.88;;;1.67;;
59239;SDS011;45010;53.640;10.578;2023-05-18T09:36:04;6.45;;;2.00;;
59239;SDS011;45010;53.640;10.578;2023-05-18T09:39:06;4.53;;;2.22;;
59239;SDS011;45010;53.640;10.578;2023-05-18T09:42:10;8.60;;;1.92;;
59239;SDS011;45010;53.640;10.578;2023-05-18T09:48:18;8.27;;;1.60;;
59239;SDS011;45010;53.640;10.578;2023-05-18T09:51:20;5.43;;;2.28;;
59239;SDS011;45010;53.640;10.578;2023-05-18T09:54:23;8.90;;;2.70;;
59239;SDS011;45010;53.640;10.578;2023-05-18T09:57:24;6.63;;;2.28;;
59239;SDS011;45010;53.640;10.578;2023-05-18T10:00:25;9.75;;;3.58;;
59239;SDS011;45010;53.640;10.578;2023-05-18T10:03:25;9.70;;;3.05;;
59239;SDS011;45010;53.640;10.578;2023-05-18T10:06:31;10.40;;;2.78;;
59239;SDS011;45010;53.640;10.578;2023-05-18T10:09:31;11.52;;;3.10;;
59239;SDS011;45010;53.640;10.578;2023-05-18T10:12:32;10.38;;;2.38;;
59239;SDS011;45010;53.640;10.578;2023-05-18T10:15:33;9.52;;;2.10;;
59239;SDS011;45010;53.640;10.578;2023-05-18T10:18:35;4.47;;;1.77;;
59239;SDS011;45010;53.640;10.578;2023-05-18T10:21:36;6.13;;;1.98;;
59239;SDS011;45010;53.640;10.578;2023-05-18T10:24:38;6.93;;;1.90;;
59239;SDS011;45010;53.640;10.578;2023-05-18T10:27:40;5.43;;;1.60;;
59239;SDS011;45010;53.640;10.578;2023-05-18T10:30:44;9.63;;;2.00;;
59239;SDS011;45010;53.640;10.578;2023-05-18T10:33:44;5.35;;;2.80;;
59239;SDS011;45010;53.640;10.578;2023-05-18T10:36:45;6.30;;;2.65;;
59239;SDS011;45010;53.640;10.578;2023-05-18T10:39:45;7.00;;;2.35;;
59239;SDS011;45010;53.640;10.578;2023-05-18T10:42:47;5.07;;;2.03;;
59239;SDS011;45010;53.640;10.578;2023-05-18T10:45:51;7.05;;;1.95;;
59239;SDS011;45010;53.640;10.578;2023-05-18T10:48:53;5.43;;;1.83;;
59239;SDS011;45010;53.640;10.578;2023-05-18T10:51:56;5.93;;;1.83;;
59239;SDS011;45010;53.640;10.578;2023-05-18T10:54:57;3.55;;;1.55;;
59239;SDS011;45010;53.640;10.578;2023-05-18T10:58:02;6.07;;;2.20;;
59239;SDS011;45010;53.640;10.578;2023-05-18T11:01:07;3.85;;;1.35;;
59239;SDS011;45010;53.640;10.578;2023-05-18T11:04:10;8.55;;;2.00;;
59239;SDS011;45010;53.640;10.578;2023-05-18T11:07:11;7.82;;;2.25;;
59239;SDS011;45010;53.640;10.578;2023-05-18T11:10:12;8.68;;;3.00;;
59239;SDS011;45010;53.640;10.578;2023-05-18T11:13:13;5.93;;;2.30;;
59239;SDS011;45010;53.640;10.578;2023-05-18T11:16:14;6.28;;;2.40;;
59239;SDS011;45010;53.640;10.578;2023-05-18T11:19:15;7.30;;;2.28;;
59239;SDS011;45010;53.640;10.578;2023-05-18T11:22:15;5.50;;;1.80;;
59239;SDS011;45010;53.640;10.578;2023-05-18T11:28:23;4.78;;;1.63;;
59239;SDS011;45010;53.640;10.578;2023-05-18T11:31:38;5.45;;;2.00;;
59239;SDS011;45010;53.640;10.578;2023-05-18T11:34:44;7.82;;;2.60;;
59239;SDS011;45010;53.640;10.578;2023-05-18T11:37:46;6.85;;;1.80;;
59239;SDS011;45010;53.640;10.578;2023-05-18T11:40:48;6.93;;;1.73;;
59239;SDS011;45010;53.640;10.578;2023-05-18T11:43:56;4.80;;;1.73;;
59239;SDS011;45010;53.640;10.578;2023-05-18T11:47:03;6.20;;;1.77;;
59239;SDS011;45010;53.640;10.578;2023-05-18T11:50:08;6.47;;;1.73;;
59239;SDS011;45010;53.640;10.578;2023-05-18T11:53:13;4.25;;;2.00;;
59239;SDS011;45010;53.640;10.578;2023-05-18T11:56:15;6.53;;;1.92;;
59239;SDS011;45010;53.640;10.578;2023-05-18T11:59:16;7.32;;;1.90;;
59239;SDS011;45010;53.640;10.578;2023-05-18T12:02:17;5.53;;;1.80;;
59239;SDS011;45010;53.640;10.578;2023-05-18T12:05:20;4.78;;;1.58;;
59239;SDS011;45010;53.640;10.578;2023-05-18T12:08:20;6.25;;;1.52;;
59239;SDS011;45010;53.640;10.578;2023-05-18T12:11:28;5.50;;;1.67;;
59239;SDS011;45010;53.640;10.578;2023-05-18T12:14:28;4.82;;;1.73;;
59239;SDS011;45010;53.640;10.578;2023-05-18T12:21:02;5.97;;;1.52;;
59239;SDS011;45010;53.640;10.578;2023-05-18T12:24:03;4.50;;;1.45;;
59239;SDS011;45010;53.640;10.578;2023-05-18T12:27:04;4.93;;;1.60;;
59239;SDS011;45010;53.640;10.578;2023-05-18T12:30:09;5.60;;;1.75;;
59239;SDS011;45010;53.640;10.578;2023-05-18T12:33:16;8.15;;;1.52;;
59239;SDS011;45010;53.640;10.578;2023-05-18T12:36:17;9.40;;;1.70;;
59239;SDS011;45010;53.640;10.578;2023-05-18T12:39:17;6.00;;;1.80;;
59239;SDS011;45010;53.640;10.578;2023-05-18T12:42:17;6.85;;;1.63;;
59239;SDS011;45010;53.640;10.578;2023-05-18T12:45:18;4.47;;;1.38;;
59239;SDS011;45010;53.640;10.578;2023-05-18T12:48:21;7.18;;;1.90;;
59239;SDS011;45010;53.640;10.578;2023-05-18T12:51:30;6.75;;;2.20;;
59239;SDS011;45010;53.640;10.578;2023-05-18T12:54:34;10.48;;;2.22;;
59239;SDS011;45010;53.640;10.578;2023-05-18T12:57:35;6.75;;;1.95;;
59239;SDS011;45010;53.640;10.578;2023-05-18T13:00:41;6.50;;;2.42;;
59239;SDS011;45010;53.640;10.578;2023-05-18T13:03:43;6.32;;;2.30;;
59239;SDS011;45010;53.640;10.578;2023-05-18T13:06:43;10.25;;;1.90;;
59239;SDS011;45010;53.640;10.578;2023-05-18T13:09:44;5.65;;;2.22;;
59239;SDS011;45010;53.640;10.578;2023-05-18T13:12:46;7.05;;;2.85;;
59239;SDS011;45010;53.640;10.578;2023-05-18T13:15:48;10.35;;;6.28;;
59239;SDS011;45010;53.640;10.578;2023-05-18T13:18:56;11.93;;;6.25;;
59239;SDS011;45010;53.640;10.578;2023-05-18T13:21:58;10.88;;;4.70;;
59239;SDS011;45010;53.640;10.578;2023-05-18T13:24:58;7.50;;;3.88;;
59239;SDS011;45010;53.640;10.578;2023-05-18T13:27:58;7.93;;;3.10;;
59239;SDS011;45010;53.640;10.578;2023-05-18T13:31:00;9.05;;;3.42;;
59239;SDS011;45010;53.640;10.578;2023-05-18T13:34:01;9.63;;;3.00;;
59239;SDS011;45010;53.640;10.578;2023-05-18T13:37:01;7.78;;;2.78;;
59239;SDS011;45010;53.640;10.578;2023-05-18T13:40:01;7.10;;;2.45;;
59239;SDS011;45010;53.640;10.578;2023-05-18T13:43:02;6.20;;;2.58;;
59239;SDS011;45010;53.640;10.578;2023-05-18T13:46:02;5.35;;;2.35;;
59239;SDS011;45010;53.640;10.578;2023-05-18T13:49:03;7.10;;;2.22;;
59239;SDS011;45010;53.640;10.578;2023-05-18T13:52:03;5.30;;;2.13;;
59239;SDS011;45010;53.640;10.578;2023-05-18T13:55:05;10.15;;;2.15;;
59239;SDS011;45010;53.640;10.578;2023-05-18T13:58:06;6.88;;;1.98;;
59239;SDS011;45010;53.640;10.578;2023-05-18T14:01:06;7.78;;;2.17;;
59239;SDS011;45010;53.640;10.578;2023-05-18T14:04:08;6.25;;;1.92;;
59239;SDS011;45010;53.640;10.578;2023-05-18T14:07:09;5.72;;;1.70;;
59239;SDS011;45010;53.640;10.578;2023-05-18T14:10:10;6.85;;;1.90;;
59239;SDS011;45010;53.640;10.578;2023-05-18T14:13:11;3.63;;;1.52;;
59239;SDS011;45010;53.640;10.578;2023-05-18T14:16:12;5.20;;;2.00;;
59239;SDS011;45010;53.640;10.578;2023-05-18T14:19:12;5.32;;;1.83;;
59239;SDS011;45010;53.640;10.578;2023-05-18T14:22:12;6.88;;;2.05;;
59239;SDS011;45010;53.640;10.578;2023-05-18T14:25:15;7.93;;;2.00;;
59239;SDS011;45010;53.640;10.578;2023-05-18T14:28:16;6.50;;;1.90;;
59239;SDS011;45010;53.640;10.578;2023-05-18T14:31:16;8.43;;;2.40;;
59239;SDS011;45010;53.640;10.578;2023-05-18T14:34:16;8.82;;;2.08;;
59239;SDS011;45010;53.640;10.578;2023-05-18T14:37:17;4.72;;;2.05;;
59239;SDS011;45010;53.640;10.578;2023-05-18T14:40:17;6.15;;;2.13;;
59239;SDS011;45010;53.640;10.578;2023-05-18T14:43:18;10.02;;;2.55;;
59239;SDS011;45010;53.640;10.578;2023-05-18T14:46:18;5.78;;;1.65;;
59239;SDS011;45010;53.640;10.578;2023-05-18T14:49:19;6.32;;;1.77;;
59239;SDS011;45010;53.640;10.578;2023-05-18T14:52:19;7.32;;;1.70;;
59239;SDS011;45010;53.640;10.578;2023-05-18T14:55:20;10.02;;;2.30;;
59239;SDS011;45010;53.640;10.578;2023-05-18T14:58:20;8.45;;;2.03;;
59239;SDS011;45010;53.640;10.578;2023-05-18T15:01:20;7.57;;;1.80;;
59239;SDS011;45010;53.640;10.578;2023-05-18T15:04:21;5.90;;;2.00;;
59239;SDS011;45010;53.640;10.578;2023-05-18T15:07:22;7.78;;;1.92;;
59239;SDS011;45010;53.640;10.578;2023-05-18T15:10:22;5.88;;;1.88;;
59239;SDS011;45010;53.640;10.578;2023-05-18T15:13:22;7.68;;;2.40;;
59239;SDS011;45010;53.640;10.578;2023-05-18T15:16:23;7.22;;;2.28;;
59239;SDS011;45010;53.640;10.578;2023-05-18T15:19:23;6.60;;;2.10;;
59239;SDS011;45010;53.640;10.578;2023-05-18T15:22:23;5.53;;;1.80;;
59239;SDS011;45010;53.640;10.578;2023-05-18T15:25:24;6.65;;;1.90;;
59239;SDS011;45010;53.640;10.578;2023-05-18T15:28:24;6.60;;;2.47;;
59239;SDS011;45010;53.640;10.578;2023-05-18T15:31:24;6.30;;;1.92;;
59239;SDS011;45010;53.640;10.578;2023-05-18T15:34:25;10.18;;;3.97;;
59239;SDS011;45010;53.640;10.578;2023-05-18T15:37:25;7.78;;;3.33;;
59239;SDS011;45010;53.640;10.578;2023-05-18T15:40:26;8.80;;;3.85;;
59239;SDS011;45010;53.640;10.578;2023-05-18T15:43:26;6.35;;;2.83;;
59239;SDS011;45010;53.640;10.578;2023-05-18T15:46:29;69.63;;;20.15;;
59239;SDS011;45010;53.640;10.578;2023-05-18T15:49:30;68.32;;;16.67;;
59239;SDS011;45010;53.640;10.578;2023-05-18T15:52:31;36.83;;;11.32;;
59239;SDS011;45010;53.640;10.578;2023-05-18T15:55:31;30.10;;;9.23;;
59239;SDS011;45010;53.640;10.578;2023-05-18T15:58:31;25.73;;;7.63;;
59239;SDS011;45010;53.640;10.578;2023-05-18T16:01:32;23.85;;;7.88;;
59239;SDS011;45010;53.640;10.578;2023-05-18T16:04:33;16.80;;;5.63;;
59239;SDS011;45010;53.640;10.578;2023-05-18T16:07:33;15.73;;;4.90;;
59239;SDS011;45010;53.640;10.578;2023-05-18T16:10:34;16.13;;;4.50;;
59239;SDS011;45010;53.640;10.578;2023-05-18T16:13:34;11.35;;;3.97;;
59239;SDS011;45010;53.640;10.578;2023-05-18T16:16:34;14.48;;;4.00;;
59239;SDS011;45010;53.640;10.578;2023-05-18T16:19:35;11.43;;;3.83;;
59239;SDS011;45010;53.640;10.578;2023-05-18T16:22:35;6.82;;;3.33;;
59239;SDS011;45010;53.640;10.578;2023-05-18T16:25:35;10.55;;;3.40;;
59239;SDS011;45010;53.640;10.578;2023-05-18T16:28:36;9.15;;;2.90;;
59239;SDS011;45010;53.640;10.578;2023-05-18T16:31:36;7.43;;;3.00;;
59239;SDS011;45010;53.640;10.578;2023-05-18T16:34:36;7.05;;;2.85;;
59239;SDS011;45010;53.640;10.578;2023-05-18T16:37:37;6.57;;;2.83;;
59239;SDS011;45010;53.640;10.578;2023-05-18T16:40:37;7.05;;;3.20;;
59239;SDS011;45010;53.640;10.578;2023-05-18T16:43:38;7.65;;;3.20;;
59239;SDS011;45010;53.640;10.578;2023-05-18T16:46:38;5.15;;;2.42;;
59239;SDS011;45010;53.640;10.578;2023-05-18T16:49:38;6.35;;;2.83;;
59239;SDS011;45010;53.640;10.578;2023-05-18T16:52:39;5.22;;;1.95;;
59239;SDS011;45010;53.640;10.578;2023-05-18T16:55:39;5.35;;;2.70;;
59239;SDS011;45010;53.640;10.578;2023-05-18T16:58:40;7.00;;;2.60;;
59239;SDS011;45010;53.640;10.578;2023-05-18T17:01:40;8.18;;;3.17;;
59239;SDS011;45010;53.640;10.578;2023-05-18T17:04:41;5.88;;;2.60;;
59239;SDS011;45010;53.640;10.578;2023-05-18T17:07:43;5.25;;;3.13;;
59239;SDS011;45010;53.640;10.578;2023-05-18T17:10:43;6.22;;;2.53;;
59239;SDS011;45010;53.640;10.578;2023-05-18T17:13:43;6.03;;;2.30;;
59239;SDS011;45010;53.640;10.578;2023-05-18T17:16:44;6.00;;;2.10;;
59239;SDS011;45010;53.640;10.578;2023-05-18T17:19:45;4.30;;;1.60;;
59239;SDS011;45010;53.640;10.578;2023-05-18T17:22:45;6.15;;;2.40;;
59239;SDS011;45010;53.640;10.578;2023-05-18T17:25:46;6.10;;;2.08;;
59239;SDS011;45010;53.640;10.578;2023-05-18T17:28:46;4.45;;;2.08;;
59239;SDS011;45010;53.640;10.578;2023-05-18T17:31:46;4.47;;;1.90;;
59239;SDS011;45010;53.640;10.578;2023-05-18T17:34:47;3.92;;;2.00;;
59239;SDS011;45010;53.640;10.578;2023-05-18T17:37:47;5.13;;;2.45;;
59239;SDS011;45010;53.640;10.578;2023-05-18T17:40:47;6.10;;;2.38;;
59239;SDS011;45010;53.640;10.578;2023-05-18T17:43:48;5.63;;;2.25;;
59239;SDS011;45010;53.640;10.578;2023-05-18T17:46:48;4.90;;;2.05;;
59239;SDS011;45010;53.640;10.578;2023-05-18T17:49:49;4.18;;;1.60;;
59239;SDS011;45010;53.640;10.578;2023-05-18T17:52:50;5.38;;;1.63;;
59239;SDS011;45010;53.640;10.578;2023-05-18T17:55:50;3.92;;;1.98;;
59239;SDS011;45010;53.640;10.578;2023-05-18T17:58:51;5.22;;;1.77;;
59239;SDS011;45010;53.640;10.578;2023-05-18T18:01:52;4.07;;;1.92;;
59239;SDS011;45010;53.640;10.578;2023-05-18T18:04:53;2.72;;;1.30;;
59239;SDS011;45010;53.640;10.578;2023-05-18T18:07:54;3.65;;;1.92;;